Time;durP1;ratioP1;P1;durP2;ratioP2;P2;SDS_P1;SDS_P2;PMS_P1;PMS_P2;Temp;Humidity;BMP_temperature;BMP_pressure;BME280_temperature;BME280_humidity;BME280_pressure;Samples;Min_cycle;Max_cycle;Signal;HPM_P1;HPM_P2
2020/12/02 00:00:57;;;;;;;33.22;18.17;;;6.60;99.90;;;;;;5073455;28;20048;-63
2020/12/02 00:03:32;;;;;;;33.42;18.42;;;6.50;99.90;;;;;;5073463;28;20095;-63
2020/12/02 00:06:00;;;;;;;35.97;19.05;;;6.60;99.90;;;;;;5073429;28;20050;-63
2020/12/02 00:08:32;;;;;;;33.50;19.48;;;6.70;99.90;;;;;;5073115;28;20055;-63
2020/12/02 00:10:59;;;;;;;34.58;20.27;;;6.70;99.90;;;;;;5069927;28;20070;-63
2020/12/02 00:13:30;;;;;;;31.77;18.90;;;6.80;99.90;;;;;;5073160;28;20048;-63
2020/12/02 00:15:57;;;;;;;31.27;18.63;;;7.10;99.90;;;;;;5073548;28;20457;-63
2020/12/02 00:18:25;;;;;;;32.17;19.63;;;6.90;99.90;;;;;;5073065;28;20068;-63
2020/12/02 00:20:52;;;;;;;30.10;18.92;;;7.00;99.90;;;;;;5073037;28;20056;-63
2020/12/02 00:23:19;;;;;;;28.70;18.40;;;7.10;99.90;;;;;;5073148;28;20552;-63
2020/12/02 00:25:45;;;;;;;26.27;18.17;;;7.20;99.90;;;;;;5068408;28;20075;-63
2020/12/02 00:28:13;;;;;;;27.42;18.30;;;7.30;99.90;;;;;;5073018;28;20061;-63
2020/12/02 00:30:41;;;;;;;25.45;17.17;;;7.10;99.90;;;;;;5072542;28;20048;-63
2020/12/02 00:33:11;;;;;;;27.63;17.98;;;7.10;99.90;;;;;;5072282;28;20477;-63
2020/12/02 00:35:38;;;;;;;29.35;18.67;;;7.10;99.90;;;;;;5072683;28;20045;-63
2020/12/02 00:38:07;;;;;;;24.50;16.92;;;7.20;99.90;;;;;;5072787;28;20052;-63
2020/12/02 00:40:34;;;;;;;29.45;17.63;;;7.20;99.90;;;;;;5068741;28;20060;-63
2020/12/02 00:43:01;;;;;;;28.08;17.67;;;6.80;99.90;;;;;;5072689;28;20049;-63
2020/12/02 00:45:28;;;;;;;29.55;19.45;;;7.10;99.90;;;;;;5072664;28;20048;-63
2020/12/02 00:47:55;;;;;;;27.05;18.10;;;7.20;99.90;;;;;;5072785;28;20394;-63
2020/12/02 00:50:23;;;;;;;26.55;17.95;;;7.30;99.90;;;;;;5072736;28;20049;-63
2020/12/02 00:53:04;;;;;;;27.88;17.90;;;7.30;99.90;;;;;;5072230;28;20056;-63
2020/12/02 00:55:31;;;;;;;25.67;17.30;;;7.40;99.90;;;;;;5069341;28;20051;-63
2020/12/02 00:57:59;;;;;;;26.38;17.88;;;7.30;99.90;;;;;;5072548;28;20052;-63
2020/12/02 01:00:29;;;;;;;28.80;18.27;;;7.50;99.90;;;;;;5072793;28;20048;-63
2020/12/02 01:03:01;;;;;;;24.75;17.88;;;7.60;99.90;;;;;;5072532;28;20139;-63
2020/12/02 01:05:27;;;;;;;29.63;18.67;;;7.60;99.90;;;;;;5072606;28;20090;-63
2020/12/02 01:07:54;;;;;;;26.23;18.55;;;7.50;99.90;;;;;;5072549;28;20052;-63
2020/12/02 01:10:24;;;;;;;29.08;18.25;;;7.30;99.90;;;;;;5067628;28;20132;-63
2020/12/02 01:12:53;;;;;;;;;;;7.40;99.90;;;;;;5072991;28;20044;-63
2020/12/02 01:15:22;;;;;;;26.50;17.35;;;7.30;99.90;;;;;;5072424;28;19920;-63
2020/12/02 01:18:30;;;;;;;27.42;17.33;;;7.20;99.90;;;;;;5072395;28;20460;-63
2020/12/02 01:21:05;;;;;;;27.20;18.05;;;7.40;99.90;;;;;;5058178;28;20052;-63
2020/12/02 01:23:33;;;;;;;28.67;19.05;;;7.40;99.90;;;;;;5072740;28;20052;-63
2020/12/02 01:26:03;;;;;;;28.40;17.58;;;7.60;99.90;;;;;;5053895;28;20044;-63
2020/12/02 01:28:32;;;;;;;26.17;17.30;;;7.50;99.90;;;;;;5052421;28;20060;-63
2020/12/02 01:31:00;;;;;;;27.67;17.50;;;7.60;99.90;;;;;;5052298;28;20465;-63
2020/12/02 01:33:27;;;;;;;24.05;16.95;;;7.50;99.90;;;;;;5052330;28;20466;-63
2020/12/02 01:35:53;;;;;;;25.50;16.98;;;7.30;99.90;;;;;;5052471;28;20489;-63
2020/12/02 01:38:28;;;;;;;25.63;16.60;;;7.40;99.90;;;;;;5052317;28;20056;-63
2020/12/02 01:40:56;;;;;;;27.15;18.23;;;7.40;99.90;;;;;;5055277;28;20504;-63
2020/12/02 01:43:23;;;;;;;24.30;16.70;;;7.30;99.90;;;;;;5053531;28;20049;-63
2020/12/02 01:45:51;;;;;;;25.65;17.48;;;7.40;99.90;;;;;;5056290;28;20053;-63
2020/12/02 01:48:36;;;;;;;28.27;17.83;;;7.50;99.90;;;;;;5056310;28;20044;-63
2020/12/02 01:51:07;;;;;;;30.13;17.90;;;7.50;99.90;;;;;;5056238;28;20056;-63
2020/12/02 01:53:47;;;;;;;26.95;17.23;;;7.60;99.90;;;;;;5040144;28;20053;-63
2020/12/02 01:56:23;;;;;;;27.65;17.15;;;7.70;99.90;;;;;;5038453;28;20042;-63
2020/12/02 01:59:04;;;;;;;28.02;17.35;;;7.70;99.90;;;;;;5036002;28;20057;-63
2020/12/02 02:01:47;;;;;;;25.58;17.15;;;7.50;99.90;;;;;;5036574;28;20081;-63
2020/12/02 02:04:19;;;;;;;26.58;17.10;;;7.60;99.90;;;;;;5036168;28;20427;-63
2020/12/02 02:07:04;;;;;;;28.60;17.67;;;7.70;99.90;;;;;;5036034;28;20111;-63
2020/12/02 02:09:31;;;;;;;29.27;19.05;;;7.40;99.90;;;;;;5043534;28;20056;-63
2020/12/02 02:12:23;;;;;;;30.77;17.88;;;7.50;99.90;;;;;;5055533;28;20049;-63
2020/12/02 02:15:04;;;;;;;29.95;17.42;;;7.50;99.90;;;;;;5053735;28;20474;-63
2020/12/02 02:17:31;;;;;;;29.17;19.15;;;7.40;99.90;;;;;;5035802;28;20061;-63
2020/12/02 02:19:59;;;;;;;30.73;18.65;;;7.30;99.90;;;;;;5035639;28;20487;-63
2020/12/02 02:22:26;;;;;;;30.42;18.60;;;7.40;99.90;;;;;;5036265;28;20055;-63
2020/12/02 02:24:55;;;;;;;33.03;17.60;;;7.50;99.90;;;;;;5035362;28;20050;-63
2020/12/02 02:27:23;;;;;;;31.30;18.02;;;7.50;99.90;;;;;;5035298;28;20054;-63
2020/12/02 02:29:50;;;;;;;29.60;17.48;;;7.40;99.90;;;;;;5035750;28;20450;-63
2020/12/02 02:32:22;;;;;;;30.65;17.27;;;7.40;99.90;;;;;;5035495;28;20486;-62
2020/12/02 02:34:51;;;;;;;32.10;18.50;;;7.50;99.90;;;;;;5035254;28;20052;-62
2020/12/02 02:37:19;;;;;;;29.33;17.45;;;7.50;99.90;;;;;;5043961;28;20049;-63
2020/12/02 02:39:47;;;;;;;27.58;15.70;;;7.40;99.90;;;;;;5055267;28;20049;-63
2020/12/02 02:42:30;;;;;;;23.52;13.95;;;7.60;99.90;;;;;;5055396;28;20486;-63
2020/12/02 02:44:57;;;;;;;21.80;12.52;;;7.50;99.90;;;;;;5055283;28;20059;-63
2020/12/02 02:47:25;;;;;;;21.38;12.32;;;7.60;99.90;;;;;;5055424;28;20053;-63
2020/12/02 02:49:52;;;;;;;21.73;12.02;;;7.50;99.90;;;;;;5046119;28;20072;-63
2020/12/02 02:52:18;;;;;;;18.55;10.57;;;7.60;99.90;;;;;;5040155;28;20057;-63
2020/12/02 02:54:45;;;;;;;17.95;11.50;;;7.60;99.90;;;;;;5054246;28;20513;-63
2020/12/02 02:57:13;;;;;;;20.20;10.90;;;7.60;99.90;;;;;;5054937;28;20064;-63
2020/12/02 02:59:40;;;;;;;19.88;11.70;;;7.60;99.90;;;;;;5054785;28;20110;-63
2020/12/02 03:02:12;;;;;;;20.42;11.30;;;7.60;99.90;;;;;;5054899;28;20049;-63
2020/12/02 03:04:39;;;;;;;21.75;11.25;;;7.60;99.90;;;;;;5057839;28;20143;-63
2020/12/02 03:07:13;;;;;;;24.48;13.10;;;7.60;99.90;;;;;;5054674;28;20056;-63
2020/12/02 03:09:40;;;;;;;20.08;12.75;;;7.60;99.90;;;;;;5054566;28;20131;-62
2020/12/02 03:12:06;;;;;;;21.73;12.73;;;7.50;99.90;;;;;;5054405;28;20052;-63
2020/12/02 03:14:33;;;;;;;22.95;13.05;;;7.50;99.90;;;;;;5054535;28;20486;-63
2020/12/02 03:17:01;;;;;;;22.60;13.25;;;7.60;99.90;;;;;;5054337;28;20118;-63
2020/12/02 03:19:31;;;;;;;23.30;13.45;;;7.60;99.90;;;;;;5060851;28;20052;-63
2020/12/02 03:22:04;;;;;;;26.77;13.27;;;7.40;99.90;;;;;;5074793;28;20126;-63
2020/12/02 03:24:31;;;;;;;30.25;14.43;;;7.50;99.90;;;;;;5074385;28;20048;-63
2020/12/02 03:26:58;;;;;;;26.35;13.60;;;7.10;99.90;;;;;;5074380;28;20481;-63
2020/12/02 03:29:25;;;;;;;28.63;15.38;;;7.20;99.90;;;;;;5074493;28;20401;-63
2020/12/02 03:31:52;;;;;;;28.00;15.27;;;7.30;99.90;;;;;;5073983;28;20052;-63
2020/12/02 03:34:22;;;;;;;32.05;15.27;;;7.30;99.90;;;;;;5067579;28;20052;-63
2020/12/02 03:36:49;;;;;;;32.80;15.75;;;7.20;99.90;;;;;;5053832;28;20052;-63
2020/12/02 03:39:16;;;;;;;32.83;15.50;;;7.30;99.90;;;;;;5053860;28;20070;-63
2020/12/02 03:41:46;;;;;;;31.77;16.02;;;7.30;99.90;;;;;;5053818;28;20049;-63
2020/12/02 03:44:15;;;;;;;33.15;15.55;;;7.30;99.90;;;;;;5054001;28;20053;-63
2020/12/02 03:46:42;;;;;;;40.58;17.67;;;7.40;99.90;;;;;;5053617;28;20053;-63
2020/12/02 03:49:09;;;;;;;34.55;16.65;;;7.40;99.90;;;;;;5057454;28;20076;-63
2020/12/02 03:51:39;;;;;;;34.05;16.58;;;7.40;99.90;;;;;;5054036;28;20419;-63
2020/12/02 03:54:07;;;;;;;35.88;16.33;;;7.50;99.90;;;;;;5053674;28;20095;-63
2020/12/02 03:56:34;;;;;;;43.80;18.80;;;7.40;99.90;;;;;;5052994;28;20049;-63
2020/12/02 03:59:04;;;;;;;42.10;19.05;;;7.40;99.90;;;;;;5054078;28;20414;-63
2020/12/02 04:01:31;;;;;;;40.53;17.75;;;7.30;99.90;;;;;;5053584;28;20049;-63
2020/12/02 04:03:58;;;;;;;39.53;18.02;;;7.30;99.90;;;;;;5055376;28;20473;-63
2020/12/02 04:06:25;;;;;;;39.15;18.58;;;7.30;99.90;;;;;;5054478;28;20446;-63
2020/12/02 04:08:52;;;;;;;37.30;18.20;;;7.30;99.90;;;;;;5053711;28;20540;-63
2020/12/02 04:11:19;;;;;;;44.42;19.58;;;7.40;99.90;;;;;;5053329;28;20052;-63
2020/12/02 04:13:46;;;;;;;41.28;19.95;;;7.30;99.90;;;;;;5053325;28;20076;-63
2020/12/02 04:16:14;;;;;;;41.38;19.83;;;7.30;99.90;;;;;;5053385;28;20391;-63
2020/12/02 04:18:40;;;;;;;43.47;20.88;;;7.40;99.90;;;;;;5054952;28;20045;-63
2020/12/02 04:21:09;;;;;;;39.28;19.60;;;7.30;99.90;;;;;;5064914;28;20049;-63
2020/12/02 04:23:36;;;;;;;41.80;18.30;;;7.40;99.90;;;;;;5073341;28;20053;-63
2020/12/02 04:26:04;;;;;;;38.05;18.42;;;7.40;99.90;;;;;;5073006;28;20048;-63
2020/12/02 04:28:30;;;;;;;34.63;17.77;;;7.40;99.90;;;;;;5072605;28;20056;-63
2020/12/02 04:30:58;;;;;;;37.53;18.45;;;7.40;99.90;;;;;;5073118;28;20048;-63
2020/12/02 04:33:25;;;;;;;33.60;17.30;;;7.40;99.90;;;;;;5073173;28;20060;-63
2020/12/02 04:35:52;;;;;;;40.70;19.02;;;7.40;99.90;;;;;;5069066;28;20078;-63
2020/12/02 04:38:19;;;;;;;37.88;19.50;;;7.30;99.90;;;;;;5073255;28;20048;-63
2020/12/02 04:40:46;;;;;;;39.55;18.90;;;7.20;99.90;;;;;;5072730;28;20052;-63
2020/12/02 04:43:20;;;;;;;37.05;18.02;;;7.20;99.90;;;;;;5072818;28;20091;-63
2020/12/02 04:45:48;;;;;;;37.13;18.83;;;7.30;99.90;;;;;;5073026;28;20413;-63
2020/12/02 04:48:18;;;;;;;38.17;18.50;;;7.20;99.90;;;;;;5072297;28;20049;-63
2020/12/02 04:50:44;;;;;;;36.15;18.77;;;7.30;99.90;;;;;;5069957;28;20382;-63
2020/12/02 04:53:15;;;;;;;37.65;19.33;;;7.30;99.90;;;;;;5072567;28;20106;-63
2020/12/02 04:55:44;;;;;;;32.97;19.02;;;7.30;99.90;;;;;;5072974;28;20091;-63
2020/12/02 04:58:26;;;;;;;38.38;19.17;;;7.30;99.90;;;;;;5072865;28;20052;-63
2020/12/02 05:00:55;;;;;;;36.08;19.17;;;7.20;99.90;;;;;;5072617;28;20048;-63
2020/12/02 05:03:23;;;;;;;41.53;22.20;;;7.20;99.90;;;;;;5069390;28;20068;-63
2020/12/02 05:06:00;;;;;;;41.60;21.00;;;7.20;99.90;;;;;;5071054;28;20060;-63
2020/12/02 05:08:30;;;;;;;36.80;19.15;;;7.20;99.90;;;;;;5072799;28;20052;-63
2020/12/02 05:10:57;;;;;;;;;;;7.20;99.90;;;;;;5072979;28;20052;-63
2020/12/02 05:13:26;;;;;;;36.63;19.15;;;7.10;99.90;;;;;;5072734;28;20398;-63
2020/12/02 05:16:05;;;;;;;41.15;21.35;;;7.10;99.90;;;;;;5072400;28;20408;-63
2020/12/02 05:18:32;;;;;;;36.50;18.30;;;6.90;99.90;;;;;;5071656;28;21859;-63
2020/12/02 05:21:18;;;;;;;35.63;19.92;;;7.00;99.90;;;;;;5057631;28;20871;-63
2020/12/02 05:24:00;;;;;;;33.83;18.75;;;7.10;99.90;;;;;;5056542;28;20076;-63
2020/12/02 05:26:28;;;;;;;34.17;17.95;;;7.20;99.90;;;;;;5056303;28;20080;-64
2020/12/02 05:28:59;;;;;;;33.72;18.15;;;7.20;99.90;;;;;;5056445;28;20127;-63
2020/12/02 05:31:29;;;;;;;32.90;18.13;;;7.10;99.90;;;;;;5056388;28;20049;-63
2020/12/02 05:34:06;;;;;;;30.95;17.05;;;6.70;99.90;;;;;;5056435;28;20378;-63
2020/12/02 05:36:39;;;;;;;30.90;16.50;;;6.90;99.90;;;;;;5055877;28;20045;-63
2020/12/02 05:39:11;;;;;;;29.25;17.52;;;7.00;99.90;;;;;;5056374;28;20056;-63
2020/12/02 05:41:38;;;;;;;29.80;17.15;;;7.10;99.90;;;;;;5055666;28;20060;-63
2020/12/02 05:44:13;;;;;;;28.33;17.33;;;7.10;99.90;;;;;;5056024;28;20123;-63
2020/12/02 05:46:44;;;;;;;29.60;16.25;;;7.20;99.90;;;;;;5055783;28;20544;-63
2020/12/02 05:49:34;;;;;;;27.33;15.98;;;7.20;99.90;;;;;;5059716;28;20049;-63
2020/12/02 05:52:02;;;;;;;28.73;16.60;;;7.20;99.90;;;;;;5075549;28;20416;-63
2020/12/02 05:54:32;;;;;;;26.27;15.88;;;6.90;99.90;;;;;;5075938;28;20052;-63
2020/12/02 05:57:04;;;;;;;25.10;14.82;;;6.70;99.90;;;;;;5075663;28;20052;-63
2020/12/02 05:59:32;;;;;;;23.73;14.05;;;6.90;99.90;;;;;;5076050;28;20431;-64
2020/12/02 06:02:01;;;;;;;22.17;13.70;;;7.00;99.90;;;;;;5075738;28;20052;-64
2020/12/02 06:04:28;;;;;;;22.67;13.50;;;7.00;99.90;;;;;;5072195;28;20048;-64
2020/12/02 06:06:56;;;;;;;22.17;14.02;;;7.00;99.90;;;;;;5075729;28;20044;-64
2020/12/02 06:09:38;;;;;;;21.15;12.68;;;7.10;99.90;;;;;;5075450;28;20056;-64
2020/12/02 06:12:08;;;;;;;21.17;13.30;;;7.10;99.90;;;;;;5073739;28;20512;-64
2020/12/02 06:14:38;;;;;;;21.85;13.68;;;7.00;99.90;;;;;;5058489;28;20091;-64
2020/12/02 06:17:06;;;;;;;24.13;15.40;;;7.00;99.90;;;;;;5056953;28;20045;-64
2020/12/02 06:19:48;;;;;;;23.60;14.68;;;6.60;99.90;;;;;;5055250;28;20477;-64
2020/12/02 06:22:35;;;;;;;24.83;14.57;;;6.60;99.90;;;;;;5055267;28;20053;-63
2020/12/02 06:25:03;;;;;;;23.15;14.20;;;6.80;99.90;;;;;;5055793;28;20444;-64
2020/12/02 06:27:44;;;;;;;21.25;13.45;;;6.60;99.90;;;;;;5055286;28;20447;-64
2020/12/02 06:30:29;;;;;;;22.15;13.55;;;6.70;99.90;;;;;;5054834;28;20489;-64
2020/12/02 06:33:29;;;;;;;24.25;14.10;;;6.90;99.90;;;;;;5055825;28;20048;-64
2020/12/02 06:36:18;;;;;;;24.27;14.65;;;6.90;99.90;;;;;;5054961;28;20397;-64
2020/12/02 06:38:47;;;;;;;24.85;15.10;;;6.90;99.90;;;;;;5055179;28;20060;-64
2020/12/02 06:41:33;;;;;;;28.88;14.63;;;6.90;99.90;;;;;;5055058;28;20060;-64
2020/12/02 06:44:19;;;;;;;27.35;15.43;;;6.90;99.90;;;;;;5060999;28;20130;-64
2020/12/02 06:47:23;;;;;;;25.92;15.38;;;6.90;99.90;;;;;;5069508;28;20066;-63
2020/12/02 06:49:54;;;;;;;27.10;15.68;;;6.70;99.90;;;;;;5054572;28;20387;-63
2020/12/02 06:52:27;;;;;;;24.05;15.02;;;6.50;99.90;;;;;;5071929;28;20110;-63
2020/12/02 06:55:02;;;;;;;23.90;14.93;;;6.50;99.90;;;;;;5074887;28;20558;-63
2020/12/02 06:57:30;;;;;;;24.00;15.18;;;6.70;99.90;;;;;;5074093;28;20056;-63
2020/12/02 06:59:59;;;;;;;28.73;16.63;;;6.80;99.90;;;;;;5064542;28;20403;-63
2020/12/02 07:02:35;;;;;;;29.75;16.23;;;6.80;99.90;;;;;;5054406;28;20068;-64
2020/12/02 07:05:04;;;;;;;25.80;15.30;;;6.80;99.90;;;;;;5066747;28;20144;-64
2020/12/02 07:07:31;;;;;;;25.50;16.17;;;6.80;99.90;;;;;;5054013;28;20527;-64
2020/12/02 07:09:58;;;;;;;28.40;17.05;;;6.80;99.90;;;;;;5055220;28;20057;-64
2020/12/02 07:12:31;;;;;;;28.08;17.15;;;6.80;99.90;;;;;;5060316;28;20091;-64
2020/12/02 07:15:02;;;;;;;29.35;17.23;;;6.90;99.90;;;;;;5054046;28;20106;-64
2020/12/02 07:17:29;;;;;;;31.00;17.30;;;6.90;99.90;;;;;;5069895;28;20456;-64
2020/12/02 07:20:05;;;;;;;28.88;16.90;;;6.90;99.90;;;;;;5074293;28;20485;-64
2020/12/02 07:22:35;;;;;;;26.67;15.63;;;6.80;99.90;;;;;;5070177;28;20075;-64
2020/12/02 07:25:06;;;;;;;29.75;17.13;;;6.90;99.90;;;;;;5067694;28;20052;-64
2020/12/02 07:27:33;;;;;;;32.45;19.27;;;6.90;99.90;;;;;;5055203;28;20052;-64
2020/12/02 07:30:01;;;;;;;30.88;18.98;;;6.80;99.90;;;;;;5062034;28;20060;-64
2020/12/02 07:32:29;;;;;;;33.05;19.33;;;6.80;99.90;;;;;;5067334;28;20045;-64
2020/12/02 07:35:00;;;;;;;35.15;18.85;;;6.90;99.90;;;;;;5053938;28;20545;-64
2020/12/02 07:37:30;;;;;;;32.42;18.33;;;6.10;99.90;;;;;;5053979;28;20080;-64
2020/12/02 07:39:58;;;;;;;33.67;18.52;;;6.30;99.90;;;;;;5053813;28;20088;-64
2020/12/02 07:42:30;;;;;;;36.78;18.60;;;6.50;99.90;;;;;;5053349;28;20051;-64
2020/12/02 07:45:05;;;;;;;34.03;17.88;;;6.40;99.90;;;;;;5053910;28;20417;-64
2020/12/02 07:47:34;;;;;;;34.22;18.25;;;5.80;99.90;;;;;;5055953;28;20409;-64
2020/12/02 07:50:05;;;;;;;31.02;17.33;;;6.10;99.90;;;;;;5053460;28;20049;-63
2020/12/02 07:52:38;;;;;;;32.83;18.90;;;6.40;99.90;;;;;;5053462;28;20053;-62
2020/12/02 07:55:20;;;;;;;34.45;17.88;;;6.50;99.90;;;;;;5032835;28;20049;-63
2020/12/02 07:57:49;;;;;;;33.08;18.33;;;6.70;99.90;;;;;;5039482;28;20056;-63
2020/12/02 08:00:26;;;;;;;29.85;17.10;;;6.90;99.90;;;;;;5039958;28;20045;-63
2020/12/02 08:02:54;;;;;;;34.03;18.40;;;6.90;99.90;;;;;;5037177;28;20072;-63
2020/12/02 08:05:33;;;;;;;33.45;19.10;;;7.00;99.90;;;;;;5042798;28;20490;-63
2020/12/02 08:08:02;;;;;;;30.25;17.83;;;7.00;99.90;;;;;;5028509;28;20485;-64
2020/12/02 08:10:32;;;;;;;29.27;17.23;;;7.10;99.90;;;;;;5035073;28;20061;-64
2020/12/02 08:13:05;;;;;;;31.63;17.52;;;7.20;99.90;;;;;;5038875;28;20053;-65
2020/12/02 08:15:45;;;;;;;30.58;17.60;;;7.40;99.90;;;;;;5031819;28;20140;-65
2020/12/02 08:18:14;;;;;;;32.72;17.75;;;7.40;99.90;;;;;;5034855;28;20100;-65
2020/12/02 08:20:44;;;;;;;33.20;18.48;;;7.40;99.90;;;;;;5031570;28;20561;-65
2020/12/02 08:23:14;;;;;;;29.92;17.77;;;7.40;99.90;;;;;;5032228;28;20056;-65
2020/12/02 08:25:57;;;;;;;29.33;17.88;;;7.40;99.90;;;;;;5042959;28;20450;-65
2020/12/02 08:28:28;;;;;;;32.92;18.00;;;7.50;99.90;;;;;;5038725;28;20056;-65
2020/12/02 08:31:06;;;;;;;29.98;16.50;;;7.50;99.90;;;;;;5046659;28;20103;-65
2020/12/02 08:33:32;;;;;;;29.83;17.23;;;7.60;99.90;;;;;;5032568;28;20057;-65
2020/12/02 08:36:06;;;;;;;29.40;16.10;;;7.60;99.90;;;;;;5042454;28;20681;-65
2020/12/02 08:38:37;;;;;;;22.45;14.15;;;7.60;99.90;;;;;;5031739;28;20507;-65
2020/12/02 08:41:13;;;;;;;21.73;12.95;;;7.60;99.90;;;;;;5049169;28;20053;-65
2020/12/02 08:43:46;;;;;;;31.13;17.33;;;7.70;99.90;;;;;;5033736;28;20497;-65
2020/12/02 08:46:18;;;;;;;32.38;18.70;;;7.70;99.90;;;;;;5030819;28;20124;-65
2020/12/02 08:48:48;;;;;;;29.83;17.23;;;7.70;99.90;;;;;;5037066;28;20049;-65
2020/12/02 08:51:17;;;;;;;22.17;13.80;;;7.60;99.90;;;;;;5038974;28;20057;-65
2020/12/02 08:53:45;;;;;;;21.73;13.52;;;7.30;99.90;;;;;;5038547;28;20494;-65
2020/12/02 08:56:32;;;;;;;21.23;13.80;;;7.00;99.90;;;;;;5050004;28;20048;-65
2020/12/02 08:59:00;;;;;;;22.05;13.75;;;7.30;99.90;;;;;;5047347;28;20449;-65
2020/12/02 09:01:27;;;;;;;22.67;13.75;;;7.40;99.90;;;;;;5050307;28;20118;-65
2020/12/02 09:03:54;;;;;;;18.08;12.82;;;7.10;99.90;;;;;;5036807;28;20041;-65
2020/12/02 09:06:22;;;;;;;19.67;12.93;;;6.90;99.90;;;;;;5046516;28;20151;-65
2020/12/02 09:08:49;;;;;;;26.55;16.25;;;7.30;99.90;;;;;;5047394;28;20053;-65
2020/12/02 09:11:19;;;;;;;30.00;17.65;;;7.50;99.90;;;;;;5049459;28;20045;-65
2020/12/02 09:13:47;;;;;;;;;;;7.60;99.90;;;;;;5044022;28;20467;-65
2020/12/02 09:16:20;;;;;;;32.70;17.08;;;7.40;99.90;;;;;;5036113;28;20364;-65
2020/12/02 09:18:46;;;;;;;31.50;17.35;;;7.60;99.90;;;;;;5047868;28;20107;-65
2020/12/02 09:21:13;;;;;;;30.70;17.13;;;7.40;99.90;;;;;;5047858;28;20049;-65
2020/12/02 09:23:40;;;;;;;31.00;16.83;;;7.50;99.90;;;;;;5047324;28;20052;-65
2020/12/02 09:26:06;;;;;;;28.77;16.58;;;7.50;99.90;;;;;;5048846;28;20465;-65
2020/12/02 09:28:33;;;;;;;30.73;17.65;;;7.70;99.90;;;;;;5044909;28;20076;-65
2020/12/02 09:31:03;;;;;;;29.35;16.70;;;7.70;99.90;;;;;;5047200;28;20081;-65
2020/12/02 09:33:30;;;;;;;25.95;15.18;;;7.70;99.90;;;;;;5046635;28;20052;-65
2020/12/02 09:35:56;;;;;;;24.33;14.98;;;7.80;99.90;;;;;;5048657;28;20057;-65
2020/12/02 09:38:24;;;;;;;23.77;15.10;;;7.90;99.90;;;;;;5044609;28;20490;-65
2020/12/02 09:40:51;;;;;;;25.90;15.18;;;8.10;99.90;;;;;;5049422;28;20409;-65
2020/12/02 09:43:47;;;;;;;26.63;16.02;;;8.10;99.90;;;;;;5044478;28;20060;-65
2020/12/02 09:46:21;;;;;;;26.77;16.20;;;8.20;99.90;;;;;;5041173;28;20056;-65
2020/12/02 09:48:51;;;;;;;27.98;16.20;;;8.10;99.90;;;;;;5046411;28;20378;-65
2020/12/02 09:51:22;;;;;;;25.23;16.27;;;8.20;99.90;;;;;;5047663;28;20059;-65
2020/12/02 09:53:53;;;;;;;25.70;15.73;;;8.20;99.90;;;;;;5053966;28;20068;-65
2020/12/02 09:56:20;;;;;;;24.77;16.05;;;8.30;99.90;;;;;;5069532;28;20493;-65
2020/12/02 09:58:47;;;;;;;25.15;15.32;;;8.10;99.90;;;;;;5076287;28;20113;-65
2020/12/02 10:01:23;;;;;;;26.98;16.95;;;8.00;99.90;;;;;;5085725;28;20056;-65
2020/12/02 10:04:26;;;;;;;25.88;16.00;;;8.20;99.90;;;;;;5067856;28;20087;-65
2020/12/02 10:07:10;;;;;;;24.58;15.77;;;8.10;99.90;;;;;;5051086;28;20063;-65
2020/12/02 10:09:53;;;;;;;24.05;14.82;;;8.40;99.90;;;;;;5068151;28;20523;-65
2020/12/02 10:12:31;;;;;;;23.77;15.80;;;8.50;99.90;;;;;;5066043;28;20067;-65
2020/12/02 10:15:20;;;;;;;24.02;15.27;;;8.50;99.90;;;;;;5072726;28;20063;-65
2020/12/02 10:18:09;;;;;;;23.67;15.40;;;8.60;99.90;;;;;;5071088;28;20131;-65
2020/12/02 10:20:41;;;;;;;27.60;16.00;;;8.70;99.90;;;;;;5071686;28;20499;-65
2020/12/02 10:23:32;;;;;;;23.35;14.55;;;8.40;99.90;;;;;;5068688;28;21374;-65
2020/12/02 10:26:32;;;;;;;24.98;14.60;;;8.30;99.90;;;;;;5086192;28;20054;-65
2020/12/02 10:29:00;;;;;;;20.83;14.65;;;8.50;99.90;;;;;;5069677;28;20052;-65
2020/12/02 10:31:39;;;;;;;24.38;14.27;;;8.50;99.90;;;;;;5085393;28;20052;-65
2020/12/02 10:34:14;;;;;;;22.58;15.10;;;8.40;99.90;;;;;;5070947;28;20099;-65
2020/12/02 10:36:44;;;;;;;24.10;14.75;;;8.30;99.90;;;;;;5067949;28;20091;-65
2020/12/02 10:39:18;;;;;;;19.88;13.23;;;8.30;99.90;;;;;;5070926;28;20123;-65
2020/12/02 10:41:54;;;;;;;21.48;13.70;;;8.40;99.90;;;;;;5072478;28;20098;-65
2020/12/02 10:44:46;;;;;;;22.00;14.57;;;8.40;99.90;;;;;;5067654;28;20126;-65
2020/12/02 10:47:43;;;;;;;20.35;13.88;;;8.10;99.90;;;;;;5070122;28;20044;-65
2020/12/02 10:50:11;;;;;;;24.58;14.77;;;8.10;99.90;;;;;;5074936;28;20448;-65
2020/12/02 10:52:39;;;;;;;20.95;14.13;;;8.10;99.90;;;;;;5078927;28;20094;-65
2020/12/02 10:55:14;;;;;;;22.27;13.07;;;8.20;99.90;;;;;;5066012;28;20040;-65
2020/12/02 10:57:42;;;;;;;22.15;14.68;;;8.00;99.90;;;;;;5067841;28;20132;-65
2020/12/02 11:00:14;;;;;;;23.20;14.82;;;8.10;99.90;;;;;;5065269;28;20167;-63
2020/12/02 11:02:43;;;;;;;24.95;15.98;;;8.10;99.90;;;;;;5070985;28;20052;-63
2020/12/02 11:05:11;;;;;;;23.10;14.48;;;8.30;99.90;;;;;;5071025;28;20064;-63
2020/12/02 11:07:47;;;;;;;18.42;13.02;;;8.40;99.90;;;;;;5069191;28;20041;-56
2020/12/02 11:10:23;;;;;;;20.27;12.45;;;8.20;99.90;;;;;;5063893;28;20076;-62
2020/12/02 11:13:04;;;;;;;19.17;13.15;;;8.30;99.90;;;;;;5070135;28;20052;-64
2020/12/02 11:15:53;;;;;;;17.50;10.55;;;7.90;99.90;;;;;;5075718;28;20048;-66
2020/12/02 11:18:33;;;;;;;;;;;8.10;99.90;;;;;;5067223;28;20057;-65
2020/12/02 11:21:13;;;;;;;8.20;6.32;;;8.50;99.90;;;;;;5071397;28;19925;-65
2020/12/02 11:24:00;;;;;;;7.18;5.22;;;8.60;99.90;;;;;;5073990;28;20500;-65
2020/12/02 11:26:29;;;;;;;5.68;4.20;;;8.00;99.90;;;;;;5079308;28;20094;-65
2020/12/02 11:28:57;;;;;;;6.77;4.80;;;8.00;99.90;;;;;;5071727;28;20068;-65
2020/12/02 11:31:41;;;;;;;7.22;4.63;;;8.00;99.90;;;;;;5071602;28;20482;-65
2020/12/02 11:34:20;;;;;;;5.90;4.18;;;8.20;99.90;;;;;;5065202;28;20532;-65
2020/12/02 11:36:52;;;;;;;;;;;8.10;99.90;;;;;;5072010;28;20053;-65
2020/12/02 11:39:37;;;;;;;5.18;3.83;;;8.00;99.90;;;;;;5072381;28;19986;-65
2020/12/02 11:42:11;;;;;;;5.88;3.60;;;8.00;99.90;;;;;;5063886;28;20084;-65
2020/12/02 11:44:48;;;;;;;4.20;3.20;;;8.10;99.90;;;;;;5071473;28;20127;-65
2020/12/02 11:47:27;;;;;;;4.13;3.13;;;7.90;99.90;;;;;;5064260;28;20076;-65
2020/12/02 11:49:57;;;;;;;4.60;3.03;;;7.70;99.90;;;;;;5077010;28;20477;-65
2020/12/02 11:52:53;;;;;;;4.10;3.28;;;7.70;99.90;;;;;;5077875;28;20059;-65
2020/12/02 11:55:20;;;;;;;4.32;3.30;;;7.60;99.90;;;;;;5070200;28;20481;-65
2020/12/02 11:57:51;;;;;;;4.30;3.67;;;7.80;99.90;;;;;;5079110;28;20047;-65
2020/12/02 12:00:18;;;;;;;5.53;3.55;;;7.70;99.90;;;;;;5055061;28;20052;-65
2020/12/02 12:02:56;;;;;;;3.85;3.20;;;7.80;99.90;;;;;;5064492;28;20386;-65
2020/12/02 12:05:27;;;;;;;5.15;3.38;;;8.00;99.90;;;;;;5064318;28;20098;-65
2020/12/02 12:08:07;;;;;;;6.32;3.90;;;8.10;99.90;;;;;;5067487;28;20048;-64
2020/12/02 12:10:41;;;;;;;3.83;3.38;;;8.10;99.90;;;;;;5057590;28;20045;-64
2020/12/02 12:13:19;;;;;;;3.95;3.53;;;7.90;99.90;;;;;;5065230;28;20107;-65
2020/12/02 12:15:50;;;;;;;3.90;3.28;;;7.80;99.90;;;;;;5070316;28;20528;-64
2020/12/02 12:18:25;;;;;;;5.15;3.50;;;7.80;99.90;;;;;;5062208;28;20045;-64
2020/12/02 12:20:54;;;;;;;4.15;3.40;;;7.90;99.90;;;;;;5076873;28;20055;-64
2020/12/02 12:23:41;;;;;;;4.43;3.10;;;7.80;99.90;;;;;;5073699;28;20048;-64
2020/12/02 12:26:10;;;;;;;4.63;3.28;;;7.70;99.90;;;;;;5061960;28;20472;-64
2020/12/02 12:28:37;;;;;;;4.57;3.33;;;7.80;99.90;;;;;;5075414;28;20044;-64
2020/12/02 12:31:10;;;;;;;4.22;3.40;;;7.80;99.90;;;;;;5070255;28;20060;-64
2020/12/02 12:33:44;;;;;;;4.95;4.13;;;7.90;99.90;;;;;;5076387;28;20056;-64
2020/12/02 12:36:20;;;;;;;4.93;3.72;;;7.90;99.90;;;;;;5067737;28;20037;-64
2020/12/02 12:38:52;;;;;;;5.50;4.25;;;7.80;99.90;;;;;;5068286;28;20078;-64
2020/12/02 12:41:24;;;;;;;4.72;3.72;;;7.60;99.90;;;;;;5058190;28;20048;-64
2020/12/02 12:43:57;;;;;;;4.90;3.70;;;7.40;99.90;;;;;;5070382;28;20136;-64
2020/12/02 12:46:32;;;;;;;5.57;4.05;;;7.40;99.90;;;;;;5073569;28;20052;-64
2020/12/02 12:49:00;;;;;;;4.97;3.90;;;7.40;99.90;;;;;;5078222;28;20174;-64
2020/12/02 12:51:28;;;;;;;4.53;3.72;;;7.20;99.90;;;;;;5083101;28;20130;-64
2020/12/02 12:53:58;;;;;;;4.35;3.78;;;7.20;99.90;;;;;;5071327;28;20044;-64
2020/12/02 12:56:27;;;;;;;4.78;3.53;;;7.00;99.90;;;;;;5065341;28;20041;-64
2020/12/02 12:58:55;;;;;;;5.00;3.93;;;6.80;99.90;;;;;;5080500;28;20044;-64
2020/12/02 13:01:22;;;;;;;7.35;4.53;;;7.00;99.90;;;;;;5068997;28;20995;-64
2020/12/02 13:03:51;;;;;;;4.78;4.03;;;7.00;99.90;;;;;;5067489;28;20048;-64
2020/12/02 13:06:30;;;;;;;5.20;4.13;;;7.00;99.90;;;;;;5070028;28;20067;-64